createdAt,value
2018-04-06T00:04:26.340Z,99.99
2018-04-06T00:09:26.048Z,99.99
2018-04-06T00:14:21.936Z,99.99
2018-04-06T00:19:18.380Z,99.99
2018-04-06T00:24:18.557Z,99.99
2018-04-06T00:29:15.150Z,99.99
2018-04-06T00:34:11.836Z,99.99
2018-04-06T00:39:07.206Z,99.99
2018-04-06T00:44:02.990Z,99.99
2018-04-06T00:49:01.455Z,99.99
2018-04-06T00:54:01.615Z,99.99
2018-04-06T00:59:01.072Z,99.99
2018-04-06T01:03:56.000Z,99.99
2018-04-06T01:08:52.954Z,99.99
2018-04-06T01:13:49.671Z,99.99
2018-04-06T01:18:49.029Z,99.99
2018-04-06T01:23:45.059Z,99.99
2018-04-06T01:28:40.556Z,99.99
2018-04-06T01:33:41.217Z,99.99
2018-04-06T01:38:35.965Z,99.99
2018-04-06T01:43:31.815Z,99.99
2018-04-06T01:48:28.366Z,99.99
2018-04-06T01:53:24.587Z,99.99
2018-04-06T01:58:21.098Z,99.99
2018-04-06T02:03:16.484Z,99.99
2018-04-06T02:08:17.091Z,99.99
2018-04-06T02:13:15.628Z,99.99
2018-04-06T02:18:10.233Z,99.99
2018-04-06T02:23:06.725Z,99.99
2018-04-06T02:28:08.025Z,99.99
2018-04-06T02:33:07.474Z,99.99
2018-04-06T02:38:01.730Z,99.99
2018-04-06T02:42:58.848Z,99.99
2018-04-06T02:47:55.241Z,99.99
2018-04-06T02:52:55.445Z,99.99
2018-04-06T02:57:51.370Z,99.99
2018-04-06T03:02:50.945Z,99.99
2018-04-06T03:07:47.646Z,99.99
2018-04-06T03:12:47.279Z,99.99
2018-04-06T03:17:46.252Z,99.99
2018-04-06T03:22:41.127Z,99.99
2018-04-06T03:27:41.621Z,99.99
2018-04-06T03:32:40.487Z,99.99
2018-04-06T03:37:35.237Z,99.99
2018-04-06T03:42:35.010Z,99.99
2018-04-06T03:47:30.084Z,99.99
2018-04-06T03:52:30.403Z,99.99
2018-04-06T03:57:29.986Z,99.99
2018-04-06T04:02:29.607Z,99.99
2018-04-06T04:07:29.763Z,99.99
2018-04-06T04:12:29.308Z,99.99
2018-04-06T04:17:27.685Z,99.99
2018-04-06T04:22:22.373Z,99.99
2018-04-06T04:27:23.006Z,99.99
2018-04-06T04:32:18.344Z,99.99
2018-04-06T04:37:14.545Z,99.99
2018-04-06T04:42:13.873Z,99.99
2018-04-06T04:47:13.918Z,99.99
2018-04-06T04:52:13.639Z,99.99
2018-04-06T04:57:09.416Z,99.99
2018-04-06T05:02:08.798Z,99.99
2018-04-06T05:07:04.555Z,99.99
2018-04-06T05:12:00.000Z,99.99
2018-04-06T05:16:59.619Z,99.99
2018-04-06T05:21:58.365Z,99.99
2018-04-06T05:26:57.938Z,99.99
2018-04-06T05:31:52.674Z,99.99
2018-04-06T05:36:48.597Z,99.99
2018-04-06T05:41:44.953Z,99.99
2018-04-06T05:46:40.218Z,99.99
2018-04-06T05:51:41.941Z,99.99
2018-04-06T05:56:36.499Z,99.99
2018-04-06T06:01:36.442Z,99.99
2018-04-06T06:06:31.948Z,99.99
2018-04-06T06:11:32.792Z,99.99
2018-04-06T06:16:27.737Z,99.99
2018-04-06T06:21:23.728Z,99.99
2018-04-06T06:26:20.246Z,99.99
2018-04-06T06:31:20.523Z,99.99
2018-04-06T06:36:19.893Z,99.99
2018-04-06T06:41:20.048Z,99.99
2018-04-06T06:46:19.007Z,99.99
2018-04-06T06:51:19.106Z,99.99
2018-04-06T06:56:19.259Z,99.99
2018-04-06T07:01:19.110Z,99.99
2018-04-06T07:06:14.346Z,99.99
2018-04-06T07:11:11.209Z,99.99
2018-04-06T07:16:10.875Z,99.99
2018-04-06T07:21:10.627Z,99.99
2018-04-06T07:26:07.243Z,98.12
2018-04-06T07:31:04.369Z,98.64
2018-04-06T07:36:01.225Z,96.55
2018-04-06T07:41:02.340Z,95.22
2018-04-06T07:45:59.122Z,94.03
2018-04-06T07:51:00.037Z,89.80
2018-04-06T07:55:57.250Z,87.23
2018-04-06T08:00:59.888Z,85.52
2018-04-06T08:05:56.496Z,85.94
2018-04-06T08:10:58.530Z,82.93
2018-04-06T08:16:02.920Z,83.09
2018-04-06T08:21:01.635Z,82.75
2018-04-06T08:25:58.488Z,81.23
2018-04-06T08:30:56.207Z,80.84
2018-04-06T08:35:54.132Z,83.13
2018-04-06T08:40:53.716Z,80.08
2018-04-06T08:45:53.747Z,78.27
2018-04-06T08:50:53.769Z,74.75
2018-04-06T08:55:51.631Z,73.89
2018-04-06T09:00:46.601Z,76.37
2018-04-06T09:05:48.971Z,74.98
2018-04-06T09:10:47.865Z,71.70
2018-04-06T09:15:43.778Z,69.04
2018-04-06T09:20:43.315Z,69.83
2018-04-06T09:25:39.503Z,68.78
2018-04-06T09:35:43.106Z,60.27
2018-04-06T09:40:42.770Z,60.52
2018-04-06T09:45:44.038Z,57.54
2018-04-06T09:50:40.086Z,59.89
2018-04-06T09:55:40.919Z,56.67
2018-04-06T10:00:37.046Z,52.22
2018-04-06T10:05:33.709Z,53.27
2018-04-06T10:10:29.769Z,49.57
2018-04-06T10:15:33.492Z,50.64
2018-04-06T10:20:31.281Z,49.69
2018-04-06T10:25:33.422Z,50.76
2018-04-06T10:30:28.986Z,50.09
2018-04-06T10:35:26.543Z,49.69
2018-04-06T10:40:23.549Z,48.64
2018-04-06T10:45:24.364Z,50.19
2018-04-06T10:50:19.854Z,50.74
2018-04-06T10:55:19.996Z,53.77
2018-04-06T11:00:15.196Z,53.32
2018-04-06T11:05:11.570Z,52.89
2018-04-06T11:10:09.314Z,49.00
2018-04-06T11:15:10.401Z,49.60
2018-04-06T11:20:10.914Z,47.13
2018-04-06T11:25:10.238Z,47.66
2018-04-06T11:30:11.704Z,48.75
2018-04-06T11:35:13.415Z,45.52
2018-04-06T11:40:15.162Z,45.12
2018-04-06T11:45:16.456Z,45.89
2018-04-06T11:50:11.501Z,44.56
2018-04-06T11:55:12.418Z,45.94
2018-04-06T12:00:07.946Z,47.53
2018-04-06T12:05:09.414Z,48.44
2018-04-06T12:10:09.216Z,46.62
2018-04-06T12:15:08.947Z,47.18
2018-04-06T12:20:07.886Z,45.29
2018-04-06T12:25:03.896Z,43.49
2018-04-06T12:30:03.716Z,45.38
2018-04-06T12:34:58.358Z,46.03
2018-04-06T12:39:53.493Z,45.74
2018-04-06T12:44:52.166Z,43.47
2018-04-06T12:49:47.809Z,41.86
2018-04-06T12:54:44.954Z,40.50
2018-04-06T12:59:45.027Z,41.94
2018-04-06T13:04:43.310Z,40.95
2018-04-06T13:09:41.934Z,42.49
2018-04-06T13:14:42.754Z,40.95
2018-04-06T13:19:42.251Z,40.58
2018-04-06T13:24:42.219Z,39.83
2018-04-06T13:29:44.431Z,39.16
2018-04-06T13:34:44.996Z,39.56
2018-04-06T13:39:45.211Z,39.75
2018-04-06T13:44:45.443Z,39.25
2018-04-06T13:49:40.691Z,39.43
2018-04-06T13:54:40.917Z,41.15
2018-04-06T13:59:34.833Z,40.19
2018-04-06T14:04:30.264Z,40.65
2018-04-06T14:09:26.316Z,41.55
2018-04-06T14:14:23.917Z,39.35
2018-04-06T14:19:24.670Z,37.70
2018-04-06T14:24:23.681Z,39.14
2018-04-06T14:29:19.588Z,37.04
2018-04-06T14:34:21.169Z,37.99
2018-04-06T14:39:16.066Z,36.75
2018-04-06T14:44:13.205Z,39.14
2018-04-06T14:49:13.055Z,38.20
2018-04-06T14:54:09.349Z,38.10
2018-04-06T14:59:09.422Z,37.72
2018-04-06T15:04:08.485Z,38.20
2018-04-06T15:09:03.987Z,37.41
2018-04-06T15:14:00.804Z,38.37
2018-04-06T15:19:00.483Z,38.56
2018-04-06T15:23:59.923Z,39.62
2018-04-06T15:28:54.544Z,39.04
2018-04-06T15:33:54.462Z,39.43
2018-04-06T15:38:49.452Z,39.04
2018-04-06T15:48:45.270Z,39.23
2018-04-06T15:53:45.971Z,39.04
2018-04-06T15:58:45.653Z,38.54
2018-04-06T16:03:41.558Z,38.47
2018-04-06T16:08:38.082Z,39.90
2018-04-06T16:13:34.973Z,39.14
2018-04-06T16:18:35.141Z,39.22
2018-04-06T16:23:34.900Z,38.93
2018-04-06T16:28:34.111Z,39.12
2018-04-06T16:33:29.692Z,38.18
2018-04-06T16:38:25.375Z,39.22
2018-04-06T16:43:21.184Z,39.31
2018-04-06T16:48:17.967Z,39.60
2018-04-06T16:53:18.791Z,39.79
2018-04-06T16:58:13.222Z,40.82
2018-04-06T17:03:13.817Z,40.82
2018-04-06T17:08:08.464Z,40.92
2018-04-06T17:13:04.348Z,41.30
2018-04-06T17:18:01.302Z,41.66
2018-04-06T17:22:56.544Z,42.07
2018-04-06T17:27:52.460Z,43.19
2018-04-06T17:32:49.686Z,44.53
2018-04-06T17:37:45.099Z,43.95
2018-04-06T17:42:40.792Z,44.31
2018-04-06T17:47:40.551Z,43.93
2018-04-06T17:52:36.429Z,45.27
2018-04-06T17:57:33.647Z,47.66
2018-04-06T18:02:30.229Z,46.87
2018-04-06T18:07:29.570Z,45.34
2018-04-06T18:12:25.095Z,44.67
2018-04-06T18:17:25.590Z,43.62
2018-04-06T18:22:21.615Z,44.20
2018-04-06T18:27:20.830Z,43.33
2018-04-06T18:32:20.894Z,44.87
2018-04-06T18:37:15.555Z,44.20
2018-04-06T18:42:16.597Z,44.38
2018-04-06T18:47:12.431Z,44.67
2018-04-06T18:52:08.573Z,44.46
2018-04-06T18:57:05.183Z,44.65
2018-04-06T19:02:04.792Z,44.94
2018-04-06T19:07:01.847Z,45.22
2018-04-06T19:12:02.208Z,45.42
2018-04-06T19:17:01.390Z,45.32
2018-04-06T19:22:00.108Z,45.03
2018-04-06T19:32:00.494Z,46.34
2018-04-06T19:36:56.509Z,47.11
2018-04-06T19:41:56.323Z,47.02
2018-04-06T19:46:55.272Z,47.20
2018-04-06T19:51:51.910Z,47.58
2018-04-06T19:56:47.560Z,47.97
2018-04-06T20:01:49.473Z,47.68
2018-04-06T20:06:43.878Z,48.25
2018-04-06T20:11:39.366Z,48.35
2018-04-06T20:16:39.100Z,48.71
2018-04-06T20:21:38.052Z,48.13
2018-04-06T20:26:37.035Z,47.66
2018-04-06T20:31:31.452Z,48.04
2018-04-06T20:36:32.420Z,48.23
2018-04-06T20:41:27.267Z,48.52
2018-04-06T20:46:26.854Z,49.47
2018-04-06T20:51:21.750Z,49.95
2018-04-06T20:56:21.532Z,49.76
2018-04-06T21:01:17.621Z,49.85
2018-04-06T21:06:13.196Z,50.61
2018-04-06T21:11:13.235Z,52.33
2018-04-06T21:16:08.036Z,54.11
2018-04-06T21:21:07.906Z,55.54
2018-04-06T21:26:03.108Z,56.59
2018-04-06T21:30:59.520Z,59.06
2018-04-06T21:35:56.336Z,60.49
2018-04-06T21:40:56.950Z,60.97
2018-04-06T21:45:52.853Z,61.32
2018-04-06T21:50:48.202Z,62.08
2018-04-06T21:55:43.989Z,62.75
2018-04-06T22:00:40.560Z,64.47
2018-04-06T22:05:37.338Z,65.80
2018-04-06T22:10:33.481Z,65.29
2018-04-06T22:15:34.411Z,66.91
2018-04-06T22:20:29.028Z,67.38
2018-04-06T22:25:24.831Z,66.24
2018-04-06T22:30:24.352Z,67.10
2018-04-06T22:35:19.293Z,67.95
2018-04-06T22:40:19.008Z,68.62
2018-04-06T22:45:17.811Z,68.43
2018-04-06T22:50:17.657Z,68.30
2018-04-06T22:55:16.640Z,68.87
2018-04-06T23:00:15.598Z,68.62
2018-04-06T23:05:14.990Z,69.48
2018-04-06T23:10:10.632Z,71.53
2018-04-06T23:15:09.974Z,69.92
2018-04-06T23:20:06.467Z,70.81
2018-04-06T23:25:05.868Z,70.68
2018-04-06T23:30:01.763Z,70.97
2018-04-06T23:34:58.229Z,68.40
2018-04-06T23:39:58.294Z,69.54
2018-04-06T23:44:53.369Z,71.72
2018-04-06T23:49:50.717Z,69.06
2018-04-06T23:54:49.992Z,72.49
2018-04-06T23:59:49.598Z,69.44
